Machen, United Kingdom
Current Conditions -  °F | °C
As of 2:50 AM on Friday 19 Dec 2014 (Local Time) from EGFF Reporting Station
Drizzle Drizzle  
Wind Chill: 11°   Ceiling: 100
Heat Index: 11°   Visibility: 1.4mi
Dew Point: 11°   Wind: 24mph
Humidity: 100%   Direction: 260°W
Pressure: 29.8"   Gusts: 36mph
Location:  51.6°N, 3.14°W
Report Text: EGFF 190250Z AUTO 26021G31KT 2300 DZ OVC001/// //////CB 11/11 Q1009 RERA REDZ
Loading
Personal Weather Stations






























Interactive Weather Map New forecast layout! Learn more

10-Day Weather Forecast

Advertisements
Track Severe Weather on mobile